createdAt,value
2023-04-11T00:02:12.014Z,8.36
2023-04-11T00:04:40.277Z,8.36
2023-04-11T00:07:08.317Z,8.34
2023-04-11T00:09:36.356Z,8.33
2023-04-11T00:12:04.962Z,8.30
2023-04-11T00:14:34.262Z,8.28
2023-04-11T00:17:02.300Z,8.25
2023-04-11T00:19:30.920Z,8.24
2023-04-11T00:21:58.823Z,8.23
2023-04-11T00:24:27.178Z,8.22
2023-04-11T00:26:56.895Z,8.21
2023-04-11T00:29:24.865Z,8.20
2023-04-11T00:31:55.580Z,8.19
2023-04-11T00:34:23.770Z,8.18
2023-04-11T00:36:51.663Z,8.17
2023-04-11T00:39:20.533Z,8.14
2023-04-11T00:41:49.036Z,8.10
2023-04-11T00:44:17.556Z,8.08
2023-04-11T00:46:46.514Z,8.07
2023-04-11T00:49:14.506Z,8.06
2023-04-11T00:51:42.676Z,8.05
2023-04-11T00:54:12.200Z,8.04
2023-04-11T00:56:40.743Z,8.03
2023-04-11T00:59:09.349Z,8.03
2023-04-11T01:01:38.470Z,8.02
2023-04-11T01:04:06.687Z,8.01
2023-04-11T01:06:34.720Z,8.01
2023-04-11T01:09:04.986Z,7.99
2023-04-11T01:11:33.930Z,7.98
2023-04-11T01:14:03.352Z,7.96
2023-04-11T01:16:31.528Z,7.95
2023-04-11T01:18:59.486Z,7.94
2023-04-11T01:21:28.608Z,7.93
2023-04-11T01:23:56.685Z,7.92
2023-04-11T01:26:24.852Z,7.90
2023-04-11T01:28:52.978Z,7.89
2023-04-11T01:31:22.064Z,7.88
2023-04-11T01:33:50.202Z,7.88
2023-04-11T01:36:18.052Z,7.86
2023-04-11T01:38:46.246Z,7.85
2023-04-11T01:41:16.874Z,7.84
2023-04-11T01:43:45.272Z,7.83
2023-04-11T01:46:14.071Z,7.82
2023-04-11T01:48:42.730Z,7.81
2023-04-11T01:51:12.371Z,7.81
2023-04-11T01:53:40.535Z,7.80
2023-04-11T01:56:08.925Z,7.79
2023-04-11T01:58:37.206Z,7.78
2023-04-11T02:01:05.822Z,7.77
2023-04-11T02:03:34.142Z,7.76
2023-04-11T02:06:02.967Z,7.75
2023-04-11T02:08:31.173Z,7.75
2023-04-11T02:10:59.137Z,7.74
2023-04-11T02:13:27.098Z,7.74
2023-04-11T02:15:54.902Z,7.73
2023-04-11T02:18:27.443Z,7.73
2023-04-11T02:20:56.600Z,7.72
2023-04-11T02:23:24.500Z,7.72
2023-04-11T02:25:52.401Z,7.72
2023-04-11T02:28:21.214Z,7.71
2023-04-11T02:30:49.836Z,7.69
2023-04-11T02:33:19.990Z,7.69
2023-04-11T02:35:48.100Z,7.67
2023-04-11T02:38:16.248Z,7.67
2023-04-11T02:40:44.353Z,7.66
2023-04-11T02:43:12.599Z,7.66
2023-04-11T02:45:41.812Z,7.64
2023-04-11T02:48:10.310Z,7.64
2023-04-11T02:50:43.193Z,7.63
2023-04-11T02:53:11.672Z,7.63
2023-04-11T02:55:44.454Z,7.62
2023-04-11T02:58:18.246Z,7.62
2023-04-11T03:00:49.514Z,7.60
2023-04-11T03:03:17.961Z,7.60
2023-04-11T03:05:47.297Z,7.58
2023-04-11T03:08:16.704Z,7.57
2023-04-11T03:10:50.101Z,7.56
2023-04-11T03:13:18.178Z,7.54
2023-04-11T03:15:46.403Z,7.52
2023-04-11T03:18:14.949Z,7.51
2023-04-11T03:20:44.763Z,7.50
2023-04-11T03:23:13.744Z,7.48
2023-04-11T03:25:44.807Z,7.46
2023-04-11T03:28:14.021Z,7.45
2023-04-11T03:30:42.803Z,7.43
2023-04-11T03:33:12.623Z,7.42
2023-04-11T03:35:41.332Z,7.39
2023-04-11T03:38:09.387Z,7.38
2023-04-11T03:40:37.573Z,7.36
2023-04-11T03:43:11.883Z,7.34
2023-04-11T03:45:39.963Z,7.32
2023-04-11T03:48:12.847Z,7.30
2023-04-11T03:50:53.819Z,7.27
2023-04-11T03:53:26.391Z,7.26
2023-04-11T03:55:57.443Z,7.24
2023-04-11T03:58:31.361Z,7.21
2023-04-11T04:00:59.324Z,7.19
2023-04-11T04:03:27.559Z,7.16
2023-04-11T04:05:56.907Z,7.14
2023-04-11T04:08:24.982Z,7.12
2023-04-11T04:10:53.334Z,7.10
2023-04-11T04:13:22.263Z,7.07
2023-04-11T04:15:58.417Z,7.04
2023-04-11T04:18:28.135Z,7.02
2023-04-11T04:20:56.008Z,7.00
2023-04-11T04:23:26.852Z,6.97
2023-04-11T04:26:17.802Z,6.95
2023-04-11T04:28:54.154Z,6.93
2023-04-11T04:31:29.940Z,6.91
2023-04-11T04:34:08.836Z,6.88
2023-04-11T04:36:59.541Z,6.86
2023-04-11T04:39:35.025Z,6.85
2023-04-11T04:42:04.337Z,6.84
2023-04-11T04:44:37.122Z,6.83
2023-04-11T04:47:08.761Z,6.81
2023-04-11T04:49:36.619Z,6.78
2023-04-11T04:52:04.921Z,6.77
2023-04-11T04:54:33.103Z,6.76
2023-04-11T04:57:01.918Z,6.76
2023-04-11T04:59:30.165Z,6.74
2023-04-11T05:02:04.246Z,6.73
2023-04-11T05:04:34.412Z,6.73
2023-04-11T05:07:04.022Z,6.72
2023-04-11T05:09:32.609Z,6.72
2023-04-11T05:12:10.999Z,6.71
2023-04-11T05:14:40.123Z,6.71
2023-04-11T05:17:08.305Z,6.70
2023-04-11T05:19:36.300Z,6.70
2023-04-11T05:22:04.670Z,6.70
2023-04-11T05:24:34.058Z,6.70
2023-04-11T05:27:02.654Z,6.70
2023-04-11T05:29:30.577Z,6.71
2023-04-11T05:32:01.379Z,6.71
2023-04-11T05:34:31.287Z,6.72
2023-04-11T05:36:59.464Z,6.73
2023-04-11T05:39:27.776Z,6.74
2023-04-11T05:41:57.765Z,6.75
2023-04-11T05:44:26.159Z,6.76
2023-04-11T05:46:54.120Z,6.77
2023-04-11T05:49:22.165Z,6.79
2023-04-11T05:51:50.172Z,6.80
2023-04-11T05:54:31.905Z,6.83
2023-04-11T05:57:00.237Z,6.84
2023-04-11T05:59:30.375Z,6.85
2023-04-11T06:01:58.990Z,6.87
2023-04-11T06:04:27.258Z,6.89
2023-04-11T06:06:55.938Z,6.91
2023-04-11T06:09:23.999Z,6.93
2023-04-11T06:11:51.969Z,6.95
2023-04-11T06:14:19.950Z,6.98
2023-04-11T06:16:48.021Z,7.00
2023-04-11T06:19:16.400Z,7.03
2023-04-11T06:21:44.389Z,7.05
2023-04-11T06:24:12.362Z,7.08
2023-04-11T06:26:40.630Z,7.11
2023-04-11T06:29:08.562Z,7.15
2023-04-11T06:31:36.715Z,7.18
2023-04-11T06:34:04.767Z,7.22
2023-04-11T06:36:32.728Z,7.26
2023-04-11T06:39:01.027Z,7.31
2023-04-11T06:41:29.408Z,7.35
2023-04-11T06:43:57.491Z,7.40
2023-04-11T06:46:25.578Z,7.44
2023-04-11T06:48:53.837Z,7.50
2023-04-11T06:51:21.714Z,7.54
2023-04-11T06:53:49.509Z,7.59
2023-04-11T06:56:17.565Z,7.64
2023-04-11T06:58:45.451Z,7.69
2023-04-11T07:01:14.424Z,7.73
2023-04-11T07:03:42.550Z,7.78
2023-04-11T07:06:10.985Z,7.82
2023-04-11T07:08:39.075Z,7.87
2023-04-11T07:11:07.344Z,7.92
2023-04-11T07:13:35.304Z,7.96
2023-04-11T07:16:03.508Z,8.02
2023-04-11T07:18:31.674Z,8.07
2023-04-11T07:20:59.554Z,8.13
2023-04-11T07:23:27.709Z,8.19
2023-04-11T07:25:55.804Z,8.25
2023-04-11T07:28:25.232Z,8.31
2023-04-11T07:30:53.087Z,8.37
2023-04-11T07:33:21.769Z,8.43
2023-04-11T07:35:50.144Z,8.49
2023-04-11T07:38:27.443Z,8.55
2023-04-11T07:40:59.420Z,8.63
2023-04-11T07:43:28.096Z,8.71
2023-04-11T07:45:57.165Z,8.77
2023-04-11T07:48:26.137Z,8.83
2023-04-11T07:50:54.698Z,8.89
2023-04-11T07:53:23.063Z,8.96
2023-04-11T07:55:51.004Z,9.01
2023-04-11T07:58:19.016Z,9.07
2023-04-11T08:00:47.705Z,9.13
2023-04-11T08:03:17.111Z,9.19
2023-04-11T08:05:45.392Z,9.25
2023-04-11T08:08:14.081Z,9.31
2023-04-11T08:10:42.157Z,9.37
2023-04-11T08:13:10.162Z,9.43
2023-04-11T08:15:39.030Z,9.48
2023-04-11T08:18:06.926Z,9.53
2023-04-11T08:20:35.156Z,9.60
2023-04-11T08:23:07.973Z,9.64
2023-04-11T08:25:36.960Z,9.70
2023-04-11T08:28:06.267Z,9.76
2023-04-11T08:30:34.177Z,9.82
2023-04-11T08:33:02.545Z,9.88
2023-04-11T08:35:30.651Z,9.93
2023-04-11T08:37:58.666Z,9.97
2023-04-11T08:40:27.942Z,10.00
2023-04-11T08:43:00.356Z,10.04
2023-04-11T08:45:29.363Z,10.08
2023-04-11T08:47:57.348Z,10.12
2023-04-11T08:50:26.428Z,10.16
2023-04-11T08:52:54.586Z,10.20
2023-04-11T08:55:22.613Z,10.24
2023-04-11T08:57:50.658Z,10.28
2023-04-11T09:00:23.585Z,10.31
2023-04-11T09:02:59.253Z,10.36
2023-04-11T09:05:29.109Z,10.40
2023-04-11T09:08:02.092Z,10.44
2023-04-11T09:10:30.683Z,10.48
2023-04-11T09:12:59.490Z,10.52
2023-04-11T09:15:28.726Z,10.57
2023-04-11T09:17:59.684Z,10.61
2023-04-11T09:20:30.643Z,10.65
2023-04-11T09:23:01.524Z,10.70
2023-04-11T09:25:29.517Z,10.75
2023-04-11T09:28:08.583Z,10.79
2023-04-11T09:30:37.299Z,10.83
2023-04-11T09:33:24.831Z,10.88
2023-04-11T09:35:53.899Z,10.92
2023-04-11T09:38:32.493Z,10.98
2023-04-11T09:41:01.636Z,11.03
2023-04-11T09:43:50.099Z,11.09
2023-04-11T09:46:20.975Z,11.14
2023-04-11T09:48:50.538Z,11.18
2023-04-11T09:51:28.023Z,11.23
2023-04-11T09:54:04.139Z,11.28
2023-04-11T09:56:34.573Z,11.32
2023-04-11T09:59:04.273Z,11.36
2023-04-11T10:01:32.505Z,11.40
2023-04-11T10:04:01.457Z,11.44
2023-04-11T10:06:32.008Z,11.48
2023-04-11T10:09:13.165Z,11.53
2023-04-11T10:11:44.798Z,11.58
2023-04-11T10:14:31.768Z,11.62
2023-04-11T10:17:22.985Z,11.67
2023-04-11T10:19:56.661Z,11.73
2023-04-11T10:22:43.916Z,11.77
2023-04-11T10:25:19.621Z,11.83
2023-04-11T10:27:54.767Z,11.89
2023-04-11T10:30:40.923Z,11.94
2023-04-11T10:33:17.724Z,11.98
2023-04-11T10:36:05.889Z,12.04
2023-04-11T10:38:37.059Z,12.10
2023-04-11T10:41:25.366Z,12.15
2023-04-11T10:44:13.007Z,12.21
2023-04-11T10:46:45.186Z,12.26
2023-04-11T10:49:31.241Z,12.32
2023-04-11T10:52:18.697Z,12.37
2023-04-11T10:54:47.356Z,12.43
2023-04-11T10:57:15.256Z,12.48
2023-04-11T10:59:43.087Z,12.52
2023-04-11T11:02:11.357Z,12.57
2023-04-11T11:04:40.416Z,12.60
2023-04-11T11:07:13.254Z,12.64
2023-04-11T11:09:41.341Z,12.67
2023-04-11T11:12:10.136Z,12.71
2023-04-11T11:14:40.444Z,12.74
2023-04-11T11:17:09.110Z,12.77
2023-04-11T11:19:37.119Z,12.80
2023-04-11T11:22:14.192Z,12.83
2023-04-11T11:24:42.378Z,12.86
2023-04-11T11:27:23.549Z,12.88
2023-04-11T11:29:53.224Z,12.91
2023-04-11T11:32:28.242Z,12.94
2023-04-11T11:34:58.918Z,12.96
2023-04-11T11:37:27.216Z,12.99
2023-04-11T11:39:55.399Z,13.02
2023-04-11T11:42:23.576Z,13.04
2023-04-11T11:44:51.753Z,13.06
2023-04-11T11:47:19.726Z,13.08
2023-04-11T11:49:47.900Z,13.10
2023-04-11T11:52:36.036Z,13.13
2023-04-11T11:55:07.598Z,13.17
2023-04-11T11:57:37.913Z,13.19
2023-04-11T12:00:06.414Z,13.21
2023-04-11T12:02:36.418Z,13.24
2023-04-11T12:05:06.309Z,13.27
2023-04-11T12:07:37.001Z,13.30
2023-04-11T12:10:09.516Z,13.33
2023-04-11T12:12:38.773Z,13.36
2023-04-11T12:15:13.888Z,13.39
2023-04-11T12:17:41.922Z,13.42
2023-04-11T12:20:10.793Z,13.47
2023-04-11T12:22:38.732Z,13.49
2023-04-11T12:25:14.193Z,13.53
2023-04-11T12:27:42.831Z,13.57
2023-04-11T12:30:11.784Z,13.62
2023-04-11T12:32:39.677Z,13.65
2023-04-11T12:35:08.273Z,13.69
2023-04-11T12:37:36.366Z,13.73
2023-04-11T12:40:12.650Z,13.77
2023-04-11T12:42:53.504Z,13.81
2023-04-11T12:45:23.506Z,13.86
2023-04-11T12:47:51.768Z,13.90
2023-04-11T12:50:20.022Z,13.93
2023-04-11T12:52:49.567Z,13.97
2023-04-11T12:55:17.940Z,13.99
2023-04-11T12:57:46.105Z,14.02
2023-04-11T13:00:15.161Z,14.04
2023-04-11T13:02:44.945Z,14.07
2023-04-11T13:05:17.131Z,14.09
2023-04-11T13:07:46.375Z,14.11
2023-04-11T13:10:16.267Z,14.13
2023-04-11T13:12:45.367Z,14.17
2023-04-11T13:15:15.246Z,14.20
2023-04-11T13:17:43.508Z,14.24
2023-04-11T13:20:12.844Z,14.28
2023-04-11T13:22:42.236Z,14.30
2023-04-11T13:25:10.919Z,14.33
2023-04-11T13:27:40.255Z,14.35
2023-04-11T13:30:09.935Z,14.38
2023-04-11T13:32:38.053Z,14.45
2023-04-11T13:35:06.306Z,14.54
2023-04-11T13:37:34.235Z,14.63
2023-04-11T13:40:02.156Z,14.71
2023-04-11T13:42:30.059Z,14.80
2023-04-11T13:44:57.898Z,14.89
2023-04-11T13:47:25.897Z,14.97
2023-04-11T13:49:53.929Z,15.06
2023-04-11T13:52:23.082Z,15.17
2023-04-11T13:54:50.950Z,15.27
2023-04-11T13:57:18.921Z,15.38
2023-04-11T13:59:46.737Z,15.49
2023-04-11T14:02:14.645Z,15.61
2023-04-11T14:04:42.891Z,15.72
2023-04-11T14:07:10.895Z,15.80
2023-04-11T14:09:38.725Z,15.88
2023-04-11T14:12:06.691Z,15.93
2023-04-11T14:14:34.575Z,15.95
2023-04-11T14:17:02.542Z,15.95
2023-04-11T14:19:30.598Z,15.96
2023-04-11T14:21:58.787Z,15.94
2023-04-11T14:24:26.701Z,15.93
2023-04-11T14:26:54.610Z,15.93
2023-04-11T14:29:23.120Z,15.93
2023-04-11T14:31:51.330Z,15.91
2023-04-11T14:34:19.373Z,15.88
2023-04-11T14:36:47.401Z,15.86
2023-04-11T14:39:15.530Z,15.83
2023-04-11T14:41:43.421Z,15.77
2023-04-11T14:44:12.043Z,15.74
2023-04-11T14:46:40.087Z,15.70
2023-04-11T14:49:08.135Z,15.65
2023-04-11T14:51:37.013Z,15.60
2023-04-11T14:54:05.695Z,15.54
2023-04-11T14:56:33.743Z,15.49
2023-04-11T14:59:01.711Z,15.45
2023-04-11T15:01:30.191Z,15.39
2023-04-11T15:03:58.463Z,15.35
2023-04-11T15:06:26.828Z,15.32
2023-04-11T15:08:54.736Z,15.28
2023-04-11T15:11:22.560Z,15.25
2023-04-11T15:13:52.918Z,15.21
2023-04-11T15:16:23.722Z,15.15
2023-04-11T15:18:51.800Z,15.13
2023-04-11T15:21:20.496Z,15.10
2023-04-11T15:23:48.404Z,15.04
2023-04-11T15:26:16.375Z,14.98
2023-04-11T15:28:46.160Z,14.94
2023-04-11T15:31:15.109Z,14.90
2023-04-11T15:33:43.271Z,14.84
2023-04-11T15:36:11.512Z,14.81
2023-04-11T15:38:39.636Z,14.76
2023-04-11T15:41:07.967Z,14.71
2023-04-11T15:43:36.065Z,14.65
2023-04-11T15:46:04.267Z,14.60
2023-04-11T15:48:32.707Z,14.56
2023-04-11T15:51:08.017Z,14.52
2023-04-11T15:53:36.279Z,14.48
2023-04-11T15:56:05.114Z,14.43
2023-04-11T15:58:33.981Z,14.38
2023-04-11T16:01:02.502Z,14.34
2023-04-11T16:03:33.701Z,14.30
2023-04-11T16:06:02.874Z,14.26
2023-04-11T16:08:31.179Z,14.20
2023-04-11T16:10:59.167Z,14.15
2023-04-11T16:13:27.058Z,14.09
2023-04-11T16:15:55.034Z,14.03
2023-04-11T16:18:23.009Z,13.97
2023-04-11T16:20:52.575Z,13.91
2023-04-11T16:23:20.550Z,13.86
2023-04-11T16:25:48.448Z,13.81
2023-04-11T16:28:16.436Z,13.76
2023-04-11T16:30:44.466Z,13.70
2023-04-11T16:33:13.161Z,13.65
2023-04-11T16:35:41.180Z,13.59
2023-04-11T16:38:09.218Z,13.53
2023-04-11T16:40:38.108Z,13.48
2023-04-11T16:43:06.488Z,13.43
2023-04-11T16:45:34.883Z,13.39
2023-04-11T16:48:03.527Z,13.35
2023-04-11T16:50:32.254Z,13.31
2023-04-11T16:53:00.336Z,13.27
2023-04-11T16:55:28.512Z,13.23
2023-04-11T16:57:56.494Z,13.20
2023-04-11T17:00:24.776Z,13.15
2023-04-11T17:02:53.067Z,13.08
2023-04-11T17:05:21.427Z,13.03
2023-04-11T17:07:49.813Z,12.99
2023-04-11T17:10:17.811Z,12.93
2023-04-11T17:12:45.808Z,12.87
2023-04-11T17:15:13.752Z,12.82
2023-04-11T17:17:41.885Z,12.78
2023-04-11T17:20:10.292Z,12.74
2023-04-11T17:22:41.661Z,12.71
2023-04-11T17:25:10.507Z,12.67
2023-04-11T17:27:38.939Z,12.63
2023-04-11T17:30:09.524Z,12.58
2023-04-11T17:32:38.293Z,12.52
2023-04-11T17:35:06.846Z,12.47
2023-04-11T17:37:36.148Z,12.42
2023-04-11T17:40:11.191Z,12.38
2023-04-11T17:42:39.361Z,12.33
2023-04-11T17:45:16.463Z,12.28
2023-04-11T17:47:48.930Z,12.23
2023-04-11T17:50:17.387Z,12.17
2023-04-11T17:52:47.654Z,12.11
2023-04-11T17:55:19.002Z,12.07
2023-04-11T17:57:50.367Z,12.04
2023-04-11T18:00:22.365Z,12.00
2023-04-11T18:02:52.695Z,11.96
2023-04-11T18:05:24.521Z,11.90
2023-04-11T18:07:54.521Z,11.85
2023-04-11T18:10:23.049Z,11.79
2023-04-11T18:12:51.987Z,11.74
2023-04-11T18:15:22.418Z,11.68
2023-04-11T18:17:51.519Z,11.61
2023-04-11T18:20:20.011Z,11.54
2023-04-11T18:22:49.617Z,11.46
2023-04-11T18:25:18.554Z,11.39
2023-04-11T18:27:47.413Z,11.32
2023-04-11T18:30:16.534Z,11.26
2023-04-11T18:32:49.638Z,11.22
2023-04-11T18:35:18.604Z,11.17
2023-04-11T18:37:47.421Z,11.14
2023-04-11T18:40:19.342Z,11.11
2023-04-11T18:42:50.478Z,11.08
2023-04-11T18:45:25.430Z,11.05
2023-04-11T18:47:53.590Z,11.03
2023-04-11T18:50:23.124Z,11.01
2023-04-11T18:52:55.425Z,10.99
2023-04-11T18:55:24.670Z,10.97
2023-04-11T18:57:55.909Z,10.96
2023-04-11T19:00:25.265Z,10.94
2023-04-11T19:02:53.663Z,10.92
2023-04-11T19:05:25.080Z,10.91
2023-04-11T19:07:53.511Z,10.90
2023-04-11T19:10:21.542Z,10.90
2023-04-11T19:12:49.517Z,10.89
2023-04-11T19:15:17.491Z,10.87
2023-04-11T19:17:45.926Z,10.87
2023-04-11T19:20:15.927Z,10.86
2023-04-11T19:22:43.974Z,10.84
2023-04-11T19:25:12.554Z,10.83
2023-04-11T19:27:44.629Z,10.82
2023-04-11T19:30:14.043Z,10.82
2023-04-11T19:32:44.080Z,10.81
2023-04-11T19:35:14.282Z,10.80
2023-04-11T19:37:42.843Z,10.79
2023-04-11T19:40:11.560Z,10.78
2023-04-11T19:42:42.806Z,10.77
2023-04-11T19:45:11.850Z,10.76
2023-04-11T19:47:40.967Z,10.74
2023-04-11T19:50:12.096Z,10.72
2023-04-11T19:52:41.280Z,10.71
2023-04-11T19:55:12.374Z,10.68
2023-04-11T19:57:41.311Z,10.67
2023-04-11T20:00:13.382Z,10.66
2023-04-11T20:02:44.792Z,10.65
2023-04-11T20:05:17.384Z,10.64
2023-04-11T20:07:46.509Z,10.62
2023-04-11T20:10:15.285Z,10.61
2023-04-11T20:12:43.320Z,10.62
2023-04-11T20:15:11.867Z,10.61
2023-04-11T20:17:39.999Z,10.60
2023-04-11T20:20:12.537Z,10.59
2023-04-11T20:22:40.893Z,10.58
2023-04-11T20:25:11.821Z,10.56
2023-04-11T20:27:40.932Z,10.55
2023-04-11T20:30:10.774Z,10.54
2023-04-11T20:32:42.010Z,10.53
2023-04-11T20:35:12.268Z,10.52
2023-04-11T20:37:43.800Z,10.51
2023-04-11T20:40:14.125Z,10.49
2023-04-11T20:42:43.120Z,10.47
2023-04-11T20:45:16.392Z,10.46
2023-04-11T20:47:49.933Z,10.45
2023-04-11T20:50:19.542Z,10.44
2023-04-11T20:52:50.687Z,10.43
2023-04-11T20:55:19.063Z,10.41
2023-04-11T20:57:47.112Z,10.40
2023-04-11T21:00:17.299Z,10.39
2023-04-11T21:02:47.181Z,10.38
2023-04-11T21:05:16.469Z,10.37
2023-04-11T21:07:44.398Z,10.36
2023-04-11T21:10:12.434Z,10.35
2023-04-11T21:12:41.412Z,10.34
2023-04-11T21:15:09.930Z,10.33
2023-04-11T21:17:39.634Z,10.32
2023-04-11T21:20:18.038Z,10.30
2023-04-11T21:22:53.359Z,10.29
2023-04-11T21:25:21.866Z,10.27
2023-04-11T21:27:50.242Z,10.25
2023-04-11T21:30:18.305Z,10.24
2023-04-11T21:32:46.211Z,10.22
2023-04-11T21:35:14.379Z,10.19
2023-04-11T21:37:42.330Z,10.17
2023-04-11T21:40:10.944Z,10.16
2023-04-11T21:42:38.886Z,10.13
2023-04-11T21:45:08.331Z,10.11
2023-04-11T21:47:36.330Z,10.08
2023-04-11T21:50:04.687Z,10.06
2023-04-11T21:52:32.656Z,10.04
2023-04-11T21:55:00.817Z,10.02
2023-04-11T21:57:28.875Z,10.01
2023-04-11T21:59:56.688Z,9.98
2023-04-11T22:02:24.612Z,9.97
2023-04-11T22:05:05.531Z,9.97
2023-04-11T22:07:46.909Z,9.95
2023-04-11T22:10:15.375Z,9.94
2023-04-11T22:12:45.624Z,9.92
2023-04-11T22:15:14.197Z,9.89
2023-04-11T22:17:43.819Z,9.88
2023-04-11T22:20:12.272Z,9.85
2023-04-11T22:22:40.351Z,9.84
2023-04-11T22:25:08.586Z,9.81
2023-04-11T22:27:36.712Z,9.78
2023-04-11T22:30:05.449Z,9.76
2023-04-11T22:32:33.813Z,9.74
2023-04-11T22:35:01.979Z,9.72
2023-04-11T22:37:30.139Z,9.70
2023-04-11T22:39:58.117Z,9.68
2023-04-11T22:42:26.110Z,9.66
2023-04-11T22:44:54.061Z,9.64
2023-04-11T22:47:22.084Z,9.62
2023-04-11T22:49:50.669Z,9.59
2023-04-11T22:52:24.463Z,9.57
2023-04-11T22:54:52.498Z,9.55
2023-04-11T22:57:20.582Z,9.53
2023-04-11T22:59:48.565Z,9.51
2023-04-11T23:02:16.606Z,9.50
2023-04-11T23:04:45.310Z,9.48
2023-04-11T23:07:13.322Z,9.46
2023-04-11T23:09:41.264Z,9.44
2023-04-11T23:12:09.138Z,9.41
2023-04-11T23:14:37.210Z,9.39
2023-04-11T23:17:05.164Z,9.36
2023-04-11T23:19:34.292Z,9.34
2023-04-11T23:22:02.266Z,9.31
2023-04-11T23:24:30.348Z,9.29
2023-04-11T23:26:58.622Z,9.27
2023-04-11T23:29:27.618Z,9.24
2023-04-11T23:31:55.595Z,9.21
2023-04-11T23:34:23.566Z,9.18
2023-04-11T23:36:51.950Z,9.16
2023-04-11T23:39:21.654Z,9.14
2023-04-11T23:41:52.098Z,9.11
2023-04-11T23:44:20.069Z,9.08
2023-04-11T23:46:48.143Z,9.05
2023-04-11T23:49:16.326Z,9.03
2023-04-11T23:51:44.257Z,9.01
2023-04-11T23:54:12.271Z,8.99
2023-04-11T23:56:40.146Z,8.97
2023-04-11T23:59:08.012Z,8.94
